Time;durP1;ratioP1;P1;durP2;ratioP2;P2;SDS_P1;SDS_P2;PMS_P1;PMS_P2;Temp;Humidity;BMP_temperature;BMP_pressure;BME280_temperature;BME280_humidity;BME280_pressure;Samples;Min_cycle;Max_cycle;Signal;HPM_P1;HPM_P2
2022/11/07 00:00:50;;;;;;;10.55;1.15;;;;;;;;;;4783721;29;20059;-74
2022/11/07 00:03:20;;;;;;;5.40;0.88;;;;;;;;;;4780546;29;20058;-73
2022/11/07 00:05:50;;;;;;;1.33;0.50;;;;;;;;;;4781869;30;20052;-75
2022/11/07 00:08:30;;;;;;;1.55;0.50;;;;;;;;;;4781637;30;20056;-75
2022/11/07 00:11:01;;;;;;;2.20;0.98;;;;;;;;;;4781345;30;20522;-72
2022/11/07 00:13:32;;;;;;;5.95;0.80;;;;;;;;;;4781273;30;20051;-75
2022/11/07 00:16:05;;;;;;;2.50;0.60;;;;;;;;;;4782394;29;20065;-74
2022/11/07 00:18:36;;;;;;;9.52;1.08;;;;;;;;;;4781492;30;20058;-77
2022/11/07 00:21:08;;;;;;;2.55;0.68;;;;;;;;;;4782038;30;20492;-75
2022/11/07 00:23:42;;;;;;;1.85;0.50;;;;;;;;;;4781224;30;20070;-75
2022/11/07 00:26:14;;;;;;;2.38;0.68;;;;;;;;;;4780208;30;20503;-71
2022/11/07 00:28:44;;;;;;;4.13;0.77;;;;;;;;;;4781399;29;20055;-75
2022/11/07 00:31:15;;;;;;;2.03;0.70;;;;;;;;;;4781381;30;20136;-74
2022/11/07 00:33:48;;;;;;;4.25;1.17;;;;;;;;;;4781395;30;20044;-73
2022/11/07 00:36:21;;;;;;;1.63;0.40;;;;;;;;;;4780642;29;20058;-72
2022/11/07 00:38:51;;;;;;;5.57;0.63;;;;;;;;;;4783192;29;20140;-76
2022/11/07 00:41:22;;;;;;;7.28;1.00;;;;;;;;;;4783127;30;20047;-72
2022/11/07 00:43:52;;;;;;;2.92;0.45;;;;;;;;;;4783967;30;20407;-72
2022/11/07 00:46:22;;;;;;;2.42;0.68;;;;;;;;;;4784124;30;20537;-72
2022/11/07 00:48:52;;;;;;;3.83;1.08;;;;;;;;;;4784215;30;20492;-73
2022/11/07 00:51:25;;;;;;;2.60;0.70;;;;;;;;;;4784855;30;20047;-73
2022/11/07 00:53:55;;;;;;;5.05;0.90;;;;;;;;;;4792833;30;20054;-75
2022/11/07 00:56:26;;;;;;;3.30;0.98;;;;;;;;;;4793042;29;20059;-73
2022/11/07 00:58:58;;;;;;;3.63;0.70;;;;;;;;;;4784227;30;20055;-72
2022/11/07 01:01:31;;;;;;;3.22;0.70;;;;;;;;;;4783499;29;20062;-75
2022/11/07 01:06:50;;;;;;;2.08;0.50;;;;;;;;;;4784547;30;20047;-72
2022/11/07 01:09:21;;;;;;;3.33;0.85;;;;;;;;;;4784517;30;20047;-75
2022/11/07 01:11:51;;;;;;;2.78;0.60;;;;;;;;;;4784982;29;20062;-73
2022/11/07 01:14:22;;;;;;;4.05;1.00;;;;;;;;;;4784199;30;20051;-75
2022/11/07 01:16:52;;;;;;;3.55;0.60;;;;;;;;;;4784376;30;20047;-75
2022/11/07 01:19:23;;;;;;;2.50;0.88;;;;;;;;;;4783964;30;20058;-75
2022/11/07 01:21:53;;;;;;;5.75;0.90;;;;;;;;;;4783920;30;20493;-76
2022/11/07 01:24:22;;;;;;;9.00;1.00;;;;;;;;;;4784415;30;20531;-72
2022/11/07 01:26:52;;;;;;;3.83;0.60;;;;;;;;;;4783733;30;20039;-74
2022/11/07 01:29:22;;;;;;;2.65;0.65;;;;;;;;;;4783078;30;20507;-78
2022/11/07 01:31:51;;;;;;;2.80;0.93;;;;;;;;;;4784112;29;20499;-74
2022/11/07 01:34:21;;;;;;;2.47;0.77;;;;;;;;;;4783893;30;20051;-73
2022/11/07 01:36:52;;;;;;;3.90;0.68;;;;;;;;;;4783623;30;20519;-76
2022/11/07 01:39:22;;;;;;;3.78;0.70;;;;;;;;;;4784200;30;20054;-75
2022/11/07 01:41:52;;;;;;;1.80;0.93;;;;;;;;;;4783623;30;20047;-78
2022/11/07 01:44:22;;;;;;;4.07;0.90;;;;;;;;;;4783918;30;20495;-73
2022/11/07 01:46:56;;;;;;;2.95;0.65;;;;;;;;;;4783650;30;20389;-75
2022/11/07 01:49:40;;;;;;;7.15;0.70;;;;;;;;;;4783065;29;20055;-74
2022/11/07 01:52:38;;;;;;;2.60;0.60;;;;;;;;;;4784312;30;20066;-74
2022/11/07 01:55:22;;;;;;;3.65;0.90;;;;;;;;;;4783474;30;20063;-72
2022/11/07 01:58:01;;;;;;;4.57;0.73;;;;;;;;;;4783763;30;20047;-73
2022/11/07 02:00:34;;;;;;;5.13;1.52;;;;;;;;;;4783206;30;20054;-73
2022/11/07 02:03:10;;;;;;;6.13;1.30;;;;;;;;;;4783396;30;20505;-74
2022/11/07 02:05:47;;;;;;;3.95;0.60;;;;;;;;;;4783232;30;20504;-76
2022/11/07 02:08:18;;;;;;;5.13;0.70;;;;;;;;;;4783323;30;20047;-73
2022/11/07 02:10:50;;;;;;;4.55;1.00;;;;;;;;;;4784187;30;20071;-74
2022/11/07 02:13:26;;;;;;;2.88;0.68;;;;;;;;;;4783387;29;20055;-74
2022/11/07 02:16:00;;;;;;;2.85;0.70;;;;;;;;;;4783295;30;20055;-73
2022/11/07 02:18:35;;;;;;;1.95;0.63;;;;;;;;;;4782995;30;20057;-74
2022/11/07 02:21:15;;;;;;;3.63;0.60;;;;;;;;;;4783838;30;20054;-74
2022/11/07 02:24:18;;;;;;;3.25;0.60;;;;;;;;;;4783516;30;20380;-73
2022/11/07 02:26:48;;;;;;;4.55;0.57;;;;;;;;;;4782674;30;20063;-75
2022/11/07 02:29:19;;;;;;;2.92;0.50;;;;;;;;;;4783014;30;20051;-73
2022/11/07 02:32:03;;;;;;;4.35;0.60;;;;;;;;;;4783282;30;20051;-73
2022/11/07 02:34:34;;;;;;;6.72;0.73;;;;;;;;;;4782843;30;20059;-76
2022/11/07 02:37:26;;;;;;;3.38;1.08;;;;;;;;;;4783056;30;20408;-71
2022/11/07 02:40:00;;;;;;;1.95;0.70;;;;;;;;;;4783581;30;20421;-74
2022/11/07 02:42:44;;;;;;;2.53;1.00;;;;;;;;;;4782727;30;20066;-73
2022/11/07 02:45:27;;;;;;;5.88;1.23;;;;;;;;;;4783094;30;20475;-74
2022/11/07 02:47:57;;;;;;;3.85;0.88;;;;;;;;;;4782583;30;20538;-74
2022/11/07 02:50:27;;;;;;;4.35;0.70;;;;;;;;;;4782913;29;20059;-73
2022/11/07 02:52:57;;;;;;;1.73;0.40;;;;;;;;;;4782984;29;20391;-73
2022/11/07 02:55:27;;;;;;;4.68;0.80;;;;;;;;;;4782756;29;20833;-74
2022/11/07 02:57:56;;;;;;;3.50;0.60;;;;;;;;;;4782437;30;20055;-74
2022/11/07 03:00:26;;;;;;;3.60;1.45;;;;;;;;;;4782505;30;20059;-75
2022/11/07 03:02:55;;;;;;;;;;;;;;;;;;4782956;29;20122;-71
2022/11/07 03:05:25;;;;;;;0.63;0.20;;;;;;;;;;4781804;29;20297;-76
2022/11/07 03:07:54;;;;;;;;;;;;;;;;;;4783026;29;20050;-74
2022/11/07 03:10:24;;;;;;;2.28;0.80;;;;;;;;;;4782902;30;19925;-73
2022/11/07 03:12:54;;;;;;;4.07;0.82;;;;;;;;;;4782392;30;20054;-72
2022/11/07 03:15:24;;;;;;;4.93;1.05;;;;;;;;;;4782555;30;20051;-71
2022/11/07 03:17:54;;;;;;;5.35;0.88;;;;;;;;;;4782820;29;20047;-73
2022/11/07 03:20:23;;;;;;;;;;;;;;;;;;4782572;30;20047;-73
2022/11/07 03:22:53;;;;;;;4.07;0.60;;;;;;;;;;4782018;29;19926;-71
2022/11/07 03:25:22;;;;;;;;;;;;;;;;;;4782779;30;20051;-74
2022/11/07 03:27:51;;;;;;;2.88;0.60;;;;;;;;;;4782642;29;20316;-74
2022/11/07 03:30:21;;;;;;;2.92;0.75;;;;;;;;;;4782498;30;20047;-72
2022/11/07 03:32:51;;;;;;;;;;;;;;;;;;4782740;30;20062;-76
2022/11/07 03:35:22;;;;;;;2.28;0.60;;;;;;;;;;4781869;30;19942;-74
2022/11/07 03:37:51;;;;;;;1.50;0.45;;;;;;;;;;4782140;29;20052;-73
2022/11/07 03:40:21;;;;;;;3.63;0.80;;;;;;;;;;4781816;30;20518;-73
2022/11/07 03:42:50;;;;;;;;;;;;;;;;;;4782590;30;20051;-73
2022/11/07 03:45:20;;;;;;;3.22;0.93;;;;;;;;;;4781887;30;19925;-73
2022/11/07 03:47:50;;;;;;;2.78;0.57;;;;;;;;;;4781801;29;20730;-73
2022/11/07 03:50:21;;;;;;;2.17;0.68;;;;;;;;;;4782164;29;20047;-74
2022/11/07 03:52:51;;;;;;;1.92;0.95;;;;;;;;;;4782520;30;20503;-73
2022/11/07 03:55:21;;;;;;;3.00;0.70;;;;;;;;;;4782171;30;20051;-73
2022/11/07 03:57:51;;;;;;;6.95;0.60;;;;;;;;;;4787424;30;20055;-71
2022/11/07 04:00:21;;;;;;;;;;;;;;;;;;4795097;30;20043;-70
2022/11/07 04:02:50;;;;;;;2.55;0.60;;;;;;;;;;4784619;29;19925;-73
2022/11/07 04:05:20;;;;;;;4.30;0.95;;;;;;;;;;4780315;29;20047;-74
2022/11/07 04:07:50;;;;;;;3.75;0.95;;;;;;;;;;4781903;29;20496;-73
2022/11/07 04:10:20;;;;;;;5.22;0.60;;;;;;;;;;4780482;29;20364;-74
2022/11/07 04:18:26;;;;;;;3.78;0.63;;;;;;;;;;4781301;30;19925;-74
2022/11/07 04:20:56;;;;;;;1.05;0.57;;;;;;;;;;4781088;30;20047;-73
2022/11/07 04:23:27;;;;;;;6.55;1.13;;;;;;;;;;4780945;29;20058;-72
2022/11/07 04:28:44;;;;;;;2.53;0.80;;;;;;;;;;4781295;30;20055;-73
2022/11/07 04:31:14;;;;;;;2.72;0.93;;;;;;;;;;4781114;30;20138;-73
2022/11/07 04:33:44;;;;;;;3.40;0.70;;;;;;;;;;4781156;30;20054;-75
2022/11/07 04:36:13;;;;;;;;;;;;;;;;;;4781599;30;20496;-73
2022/11/07 04:38:43;;;;;;;1.83;1.10;;;;;;;;;;4781331;30;19925;-74
2022/11/07 04:41:24;;;;;;;;;;;;;;;;;;4782125;30;20525;-76
2022/11/07 04:43:54;;;;;;;4.50;1.00;;;;;;;;;;4780793;30;19921;-73
2022/11/07 04:46:24;;;;;;;;;;;;;;;;;;4781933;30;20423;-74
2022/11/07 04:48:54;;;;;;;2.40;0.70;;;;;;;;;;4781685;30;19921;-74
2022/11/07 04:51:23;;;;;;;2.92;1.00;;;;;;;;;;4781668;30;20487;-74
2022/11/07 04:53:53;;;;;;;5.20;0.90;;;;;;;;;;4781134;30;20062;-73
2022/11/07 04:56:23;;;;;;;8.18;0.82;;;;;;;;;;4781104;29;20074;-72
2022/11/07 04:58:59;;;;;;;4.63;0.82;;;;;;;;;;4781683;30;20052;-73
2022/11/07 05:01:28;;;;;;;;;;;;;;;;;;4782301;30;20059;-74
2022/11/07 05:03:59;;;;;;;0.43;0.40;;;;;;;;;;4781115;30;19929;-72
2022/11/07 05:06:31;;;;;;;3.47;0.85;;;;;;;;;;4781360;29;20062;-75
2022/11/07 05:09:01;;;;;;;4.05;1.02;;;;;;;;;;4781301;30;20050;-73
2022/11/07 05:11:31;;;;;;;4.95;0.93;;;;;;;;;;4781471;30;20328;-72
2022/11/07 05:14:01;;;;;;;2.20;0.85;;;;;;;;;;4781535;29;20046;-72
2022/11/07 05:16:30;;;;;;;;;;;;;;;;;;4782098;30;20054;-75
2022/11/07 05:19:00;;;;;;;3.78;0.93;;;;;;;;;;4780702;29;19932;-73
2022/11/07 05:21:31;;;;;;;1.65;0.95;;;;;;;;;;4780947;30;20043;-72
2022/11/07 05:24:00;;;;;;;;;;;;;;;;;;4781504;29;20144;-73
2022/11/07 05:26:30;;;;;;;1.85;0.90;;;;;;;;;;4781891;30;19925;-73
2022/11/07 05:29:00;;;;;;;;;;;;;;;;;;4784094;30;20494;-72
2022/11/07 05:31:29;;;;;;;1.13;0.68;;;;;;;;;;4784219;30;19932;-73
2022/11/07 05:33:58;;;;;;;;;;;;;;;;;;4783001;29;20062;-72
2022/11/07 05:36:30;;;;;;;2.95;0.90;;;;;;;;;;4784907;30;19948;-74
2022/11/07 05:38:59;;;;;;;2.55;1.30;;;;;;;;;;4784042;30;20750;-71
2022/11/07 05:41:29;;;;;;;7.60;1.88;;;;;;;;;;4784178;29;20062;-72
2022/11/07 05:43:58;;;;;;;;;;;;;;;;;;4784245;29;20060;-73
2022/11/07 05:46:28;;;;;;;1.85;1.20;;;;;;;;;;4783906;30;20407;-72
2022/11/07 05:48:58;;;;;;;2.25;0.95;;;;;;;;;;4783771;30;20047;-72
2022/11/07 05:51:28;;;;;;;3.60;0.85;;;;;;;;;;4783916;30;20380;-73
2022/11/07 05:53:58;;;;;;;1.55;0.80;;;;;;;;;;4783750;29;20066;-74
2022/11/07 05:56:28;;;;;;;;;;;;;;;;;;4784215;30;20051;-72
2022/11/07 05:58:57;;;;;;;1.95;0.50;;;;;;;;;;4783622;30;19932;-71
2022/11/07 06:01:27;;;;;;;3.90;0.80;;;;;;;;;;4782968;29;20051;-73
2022/11/07 06:03:57;;;;;;;6.32;1.00;;;;;;;;;;4783574;30;20064;-76
2022/11/07 06:06:27;;;;;;;1.63;0.80;;;;;;;;;;4783200;30;20039;-73
2022/11/07 06:08:57;;;;;;;4.25;1.15;;;;;;;;;;4783485;30;20056;-71
2022/11/07 06:11:27;;;;;;;1.02;0.80;;;;;;;;;;4783481;30;20055;-71
2022/11/07 06:13:57;;;;;;;2.35;0.80;;;;;;;;;;4783509;30;20133;-74
2022/11/07 06:16:26;;;;;;;;;;;;;;;;;;4783817;30;20078;-73
2022/11/07 06:18:56;;;;;;;4.57;1.20;;;;;;;;;;4783270;29;19933;-73
2022/11/07 06:21:25;;;;;;;1.80;0.70;;;;;;;;;;4783039;30;20054;-72
2022/11/07 06:23:56;;;;;;;1.88;0.90;;;;;;;;;;4783543;30;20523;-75
2022/11/07 06:26:26;;;;;;;1.00;0.80;;;;;;;;;;4783292;29;20059;-72
2022/11/07 06:28:56;;;;;;;2.08;0.90;;;;;;;;;;4782975;30;20051;-72
2022/11/07 06:31:25;;;;;;;4.13;0.77;;;;;;;;;;4782112;29;20338;-74
2022/11/07 06:33:55;;;;;;;2.63;0.90;;;;;;;;;;4782753;30;20078;-74
2022/11/07 06:36:25;;;;;;;8.43;1.50;;;;;;;;;;4782291;29;20055;-73
2022/11/07 06:38:55;;;;;;;3.10;1.00;;;;;;;;;;4782929;30;20043;-74
2022/11/07 06:41:25;;;;;;;5.22;1.13;;;;;;;;;;4782941;30;20495;-73
2022/11/07 06:43:56;;;;;;;6.70;1.10;;;;;;;;;;4782927;30;20055;-72
2022/11/07 06:46:25;;;;;;;;;;;;;;;;;;4783758;30;20051;-72
2022/11/07 06:48:55;;;;;;;1.95;0.85;;;;;;;;;;4782757;30;19926;-72
2022/11/07 06:51:26;;;;;;;4.07;1.20;;;;;;;;;;4782551;30;20047;-74
2022/11/07 06:53:56;;;;;;;;;;;;;;;;;;4783470;30;20062;-73
2022/11/07 06:56:26;;;;;;;3.95;1.23;;;;;;;;;;4783066;30;19926;-74
2022/11/07 06:58:56;;;;;;;6.85;1.13;;;;;;;;;;4789907;30;20055;-74
2022/11/07 07:01:26;;;;;;;2.40;1.10;;;;;;;;;;4792166;30;20043;-72
2022/11/07 07:03:57;;;;;;;6.25;1.30;;;;;;;;;;4782509;30;20514;-74
2022/11/07 07:06:27;;;;;;;3.53;0.80;;;;;;;;;;4782896;30;20046;-73
2022/11/07 07:08:57;;;;;;;2.83;1.00;;;;;;;;;;4782347;30;20055;-75
2022/11/07 07:11:27;;;;;;;;;;;;;;;;;;4783173;30;20051;-74
2022/11/07 07:13:57;;;;;;;4.53;0.88;;;;;;;;;;4782660;30;19929;-72
2022/11/07 07:16:30;;;;;;;0.93;0.90;;;;;;;;;;4782753;30;20047;-71
2022/11/07 07:19:00;;;;;;;3.55;0.80;;;;;;;;;;4782600;30;20055;-71
2022/11/07 07:21:32;;;;;;;2.38;0.80;;;;;;;;;;4782200;30;20048;-71
2022/11/07 07:24:03;;;;;;;2.97;0.82;;;;;;;;;;4782082;30;20039;-72
2022/11/07 07:26:32;;;;;;;4.93;0.90;;;;;;;;;;4782620;29;20055;-71
2022/11/07 07:29:02;;;;;;;;;;;;;;;;;;4782501;29;20095;-73
2022/11/07 07:31:31;;;;;;;1.15;0.70;;;;;;;;;;4782500;30;19932;-75
2022/11/07 07:34:01;;;;;;;4.40;0.70;;;;;;;;;;4781909;30;20051;-74
2022/11/07 07:36:31;;;;;;;;;;;;;;;;;;4782375;30;20040;-74
2022/11/07 07:39:01;;;;;;;4.40;1.02;;;;;;;;;;4782847;30;19925;-72
2022/11/07 07:41:31;;;;;;;4.55;0.77;;;;;;;;;;4782308;30;20166;-73
2022/11/07 07:44:07;;;;;;;2.38;0.60;;;;;;;;;;4782124;30;20483;-74
2022/11/07 07:46:37;;;;;;;;;;;;;;;;;;4782903;30;20070;-74
2022/11/07 07:49:08;;;;;;;2.15;0.70;;;;;;;;;;4780953;29;20401;-72
2022/11/07 07:51:38;;;;;;;1.98;0.80;;;;;;;;;;4781661;30;20511;-74
2022/11/07 07:54:08;;;;;;;;;;;;;;;;;;4781909;30;20055;-74
2022/11/07 07:56:38;;;;;;;2.80;0.70;;;;;;;;;;4782139;30;19925;-70
2022/11/07 07:59:07;;;;;;;;;;;;;;;;;;4781953;30;20070;-76
2022/11/07 08:01:37;;;;;;;3.05;0.73;;;;;;;;;;4782138;30;20289;-72
2022/11/07 08:04:07;;;;;;;2.15;0.68;;;;;;;;;;4782141;30;20387;-72
2022/11/07 08:06:36;;;;;;;;;;;;;;;;;;4782366;30;20054;-73
2022/11/07 08:09:06;;;;;;;1.58;0.60;;;;;;;;;;4781890;30;19926;-74
2022/11/07 08:11:36;;;;;;;4.72;0.70;;;;;;;;;;4781799;30;20360;-72
2022/11/07 08:14:06;;;;;;;0.80;0.60;;;;;;;;;;4781309;29;20052;-76
2022/11/07 08:16:36;;;;;;;3.63;1.38;;;;;;;;;;4781686;30;20050;-71
2022/11/07 08:19:05;;;;;;;;;;;;;;;;;;4782458;30;20092;-76
2022/11/07 08:21:35;;;;;;;3.30;1.10;;;;;;;;;;4781596;30;19928;-73
2022/11/07 08:24:04;;;;;;;;;;;;;;;;;;4781497;30;20047;-72
2022/11/07 08:26:34;;;;;;;1.58;0.80;;;;;;;;;;4781944;30;20480;-72
2022/11/07 08:29:03;;;;;;;2.92;1.20;;;;;;;;;;4782271;30;20044;-71
2022/11/07 08:31:34;;;;;;;1.55;0.70;;;;;;;;;;4781444;30;20058;-72
2022/11/07 08:34:03;;;;;;;;;;;;;;;;;;4781106;29;20062;-75
2022/11/07 08:36:33;;;;;;;2.55;0.50;;;;;;;;;;4781492;30;19932;-73
2022/11/07 08:39:03;;;;;;;1.65;0.52;;;;;;;;;;4781525;30;20586;-74
2022/11/07 08:41:32;;;;;;;7.47;1.63;;;;;;;;;;4781496;30;20058;-76
2022/11/07 08:44:02;;;;;;;4.13;0.70;;;;;;;;;;4781263;30;20054;-73
2022/11/07 08:46:31;;;;;;;;;;;;;;;;;;4780954;30;20055;-72
2022/11/07 08:49:01;;;;;;;3.35;0.80;;;;;;;;;;4781004;30;19929;-75
2022/11/07 08:51:31;;;;;;;;;;;;;;;;;;4781879;30;20062;-73
2022/11/07 08:54:01;;;;;;;1.58;0.60;;;;;;;;;;4781655;30;19937;-72
2022/11/07 08:56:32;;;;;;;;;;;;;;;;;;4782626;30;20055;-72
2022/11/07 08:59:02;;;;;;;2.85;0.80;;;;;;;;;;4782432;29;20403;-72
2022/11/07 09:01:32;;;;;;;6.20;0.60;;;;;;;;;;4784805;30;20048;-74
2022/11/07 09:04:23;;;;;;;4.78;0.80;;;;;;;;;;4784503;30;20086;-75
2022/11/07 09:06:53;;;;;;;4.55;1.17;;;;;;;;;;4784662;30;20440;-71
2022/11/07 09:09:22;;;;;;;;;;;;;;;;;;4785027;29;20055;-73
2022/11/07 09:11:51;;;;;;;4.57;1.15;;;;;;;;;;4784397;30;19936;-72
2022/11/07 09:14:21;;;;;;;10.45;2.78;;;;;;;;;;4784201;30;20050;-75
2022/11/07 09:16:53;;;;;;;7.60;1.77;;;;;;;;;;4784224;30;20522;-76
2022/11/07 09:19:22;;;;;;;2.45;0.90;;;;;;;;;;4784939;30;20095;-72
2022/11/07 09:21:53;;;;;;;2.20;1.10;;;;;;;;;;4785021;29;20058;-72
2022/11/07 09:24:23;;;;;;;2.55;0.73;;;;;;;;;;4784457;30;20055;-75
2022/11/07 09:26:53;;;;;;;2.67;1.23;;;;;;;;;;4784304;29;20063;-73
2022/11/07 09:29:23;;;;;;;6.63;1.27;;;;;;;;;;4782724;29;20597;-75
2022/11/07 09:31:52;;;;;;;;;;;;;;;;;;4784894;30;20492;-73
2022/11/07 09:34:22;;;;;;;8.77;1.48;;;;;;;;;;4784593;30;19932;-73
2022/11/07 09:36:52;;;;;;;5.47;1.60;;;;;;;;;;4783590;30;20495;-74
2022/11/07 09:39:21;;;;;;;4.43;0.93;;;;;;;;;;4784119;30;20058;-73
2022/11/07 09:42:12;;;;;;;4.80;1.15;;;;;;;;;;4783505;30;20069;-76
2022/11/07 09:45:03;;;;;;;3.83;1.20;;;;;;;;;;4784133;30;20054;-73
2022/11/07 09:47:47;;;;;;;9.32;3.90;;;;;;;;;;4784551;30;20070;-77
2022/11/07 09:50:40;;;;;;;6.15;1.38;;;;;;;;;;4783827;30;20503;-72
2022/11/07 09:53:21;;;;;;;4.03;1.35;;;;;;;;;;4783738;29;20048;-77
2022/11/07 09:55:58;;;;;;;5.68;1.00;;;;;;;;;;4786618;30;20060;-72
2022/11/07 09:58:41;;;;;;;2.92;1.10;;;;;;;;;;4783812;30;20043;-75
2022/11/07 10:01:21;;;;;;;8.07;1.35;;;;;;;;;;4783233;29;20066;-75
2022/11/07 10:03:51;;;;;;;6.47;1.10;;;;;;;;;;4783663;30;20051;-74
2022/11/07 10:06:59;;;;;;;5.07;0.85;;;;;;;;;;4783909;30;20055;-76
2022/11/07 10:09:32;;;;;;;3.78;1.08;;;;;;;;;;4783729;30;20044;-77
2022/11/07 10:12:38;;;;;;;2.92;0.52;;;;;;;;;;4783224;29;20692;-77
2022/11/07 10:15:41;;;;;;;3.92;1.23;;;;;;;;;;4784181;30;20524;-76
2022/11/07 10:18:26;;;;;;;1.05;0.45;;;;;;;;;;4790870;29;20082;-72
2022/11/07 10:21:34;;;;;;;3.10;0.50;;;;;;;;;;4784702;30;20060;-78
2022/11/07 10:24:25;;;;;;;2.35;0.50;;;;;;;;;;4783780;29;20526;-75
2022/11/07 10:26:57;;;;;;;4.00;0.90;;;;;;;;;;4783410;30;20042;-75
2022/11/07 10:29:41;;;;;;;2.83;0.55;;;;;;;;;;4784004;30;20047;-75
2022/11/07 10:32:20;;;;;;;2.05;0.77;;;;;;;;;;4783294;30;20047;-75
2022/11/07 10:35:10;;;;;;;1.00;0.45;;;;;;;;;;4789425;29;20043;-72
2022/11/07 10:37:39;;;;;;;1.35;0.50;;;;;;;;;;4801463;29;20046;-74
2022/11/07 10:40:18;;;;;;;1.70;0.45;;;;;;;;;;4801650;29;20374;-73
2022/11/07 10:42:49;;;;;;;2.03;1.20;;;;;;;;;;4801248;29;20047;-77
2022/11/07 10:45:19;;;;;;;3.40;0.98;;;;;;;;;;4800777;29;20047;-73
2022/11/07 10:48:01;;;;;;;2.75;0.70;;;;;;;;;;4800692;29;20058;-73
2022/11/07 10:50:31;;;;;;;2.65;0.50;;;;;;;;;;4800610;29;20522;-77
2022/11/07 10:53:08;;;;;;;2.13;0.88;;;;;;;;;;4800693;29;20074;-77
2022/11/07 10:55:46;;;;;;;5.20;0.93;;;;;;;;;;4801154;29;20043;-73
2022/11/07 10:58:23;;;;;;;4.53;0.80;;;;;;;;;;4801405;29;20051;-72
2022/11/07 11:01:05;;;;;;;2.15;0.50;;;;;;;;;;4800742;29;20505;-75
2022/11/07 11:03:48;;;;;;;3.72;0.70;;;;;;;;;;4800672;29;20054;-75
2022/11/07 11:06:23;;;;;;;1.00;0.50;;;;;;;;;;4799411;29;20077;-77
2022/11/07 11:08:53;;;;;;;3.42;0.70;;;;;;;;;;4800355;29;20050;-74
2022/11/07 11:11:32;;;;;;;3.65;0.70;;;;;;;;;;4800250;29;20047;-76
2022/11/07 11:14:18;;;;;;;1.70;0.88;;;;;;;;;;4800291;29;20046;-75
2022/11/07 11:16:55;;;;;;;5.63;0.80;;;;;;;;;;4800161;29;20521;-77
2022/11/07 11:19:27;;;;;;;3.88;0.80;;;;;;;;;;4799610;29;20054;-73
2022/11/07 11:21:58;;;;;;;1.05;0.40;;;;;;;;;;4799020;29;20070;-76
2022/11/07 11:24:39;;;;;;;3.85;0.70;;;;;;;;;;4800399;29;20058;-72
2022/11/07 11:27:16;;;;;;;2.55;0.70;;;;;;;;;;4800986;29;20051;-73
2022/11/07 11:30:06;;;;;;;4.20;0.43;;;;;;;;;;4801059;29;20067;-74
2022/11/07 11:32:36;;;;;;;2.45;1.00;;;;;;;;;;4798676;29;20597;-71
2022/11/07 11:35:06;;;;;;;3.58;0.73;;;;;;;;;;4799694;29;20118;-76
2022/11/07 11:37:42;;;;;;;1.63;0.50;;;;;;;;;;4798490;29;20498;-76
2022/11/07 11:40:21;;;;;;;3.85;0.80;;;;;;;;;;4799832;29;20062;-77
2022/11/07 11:43:10;;;;;;;3.28;0.60;;;;;;;;;;4797883;29;20058;-74
2022/11/07 11:45:53;;;;;;;1.42;0.50;;;;;;;;;;4799519;29;20058;-75
2022/11/07 11:48:24;;;;;;;2.40;0.38;;;;;;;;;;4800396;29;20051;-75
2022/11/07 11:51:27;;;;;;;1.08;0.40;;;;;;;;;;4799775;29;20074;-74
2022/11/07 11:53:57;;;;;;;1.02;0.35;;;;;;;;;;4799451;29;20051;-74
2022/11/07 11:56:42;;;;;;;2.20;0.32;;;;;;;;;;4798826;29;20058;-74
2022/11/07 11:59:36;;;;;;;2.05;0.40;;;;;;;;;;4799003;29;20054;-74
2022/11/07 12:02:37;;;;;;;2.10;0.60;;;;;;;;;;4799676;29;20043;-73
2022/11/07 12:05:28;;;;;;;3.78;1.33;;;;;;;;;;4799911;29;20055;-76
2022/11/07 12:08:16;;;;;;;1.38;0.50;;;;;;;;;;4799943;29;20046;-75
2022/11/07 12:11:13;;;;;;;2.05;0.75;;;;;;;;;;4799714;29;20051;-73
2022/11/07 12:13:54;;;;;;;1.80;0.40;;;;;;;;;;4800434;29;20494;-78
2022/11/07 12:16:39;;;;;;;2.22;0.63;;;;;;;;;;4799096;29;20051;-75
2022/11/07 12:19:21;;;;;;;1.27;0.38;;;;;;;;;;4801060;29;20046;-75
2022/11/07 12:22:05;;;;;;;1.02;0.45;;;;;;;;;;4799505;29;20065;-73
2022/11/07 12:24:47;;;;;;;1.42;0.40;;;;;;;;;;4798966;29;20554;-76
2022/11/07 12:27:26;;;;;;;2.42;0.50;;;;;;;;;;4799542;29;20055;-73
2022/11/07 12:30:14;;;;;;;2.15;0.38;;;;;;;;;;4800222;29;20805;-75
2022/11/07 12:32:54;;;;;;;0.85;0.30;;;;;;;;;;4799546;29;20062;-74
2022/11/07 12:35:51;;;;;;;2.78;0.70;;;;;;;;;;4801323;29;20410;-75
2022/11/07 12:38:59;;;;;;;2.10;0.40;;;;;;;;;;4802201;29;20414;-76
2022/11/07 12:42:02;;;;;;;3.20;0.50;;;;;;;;;;4802916;29;20055;-74
2022/11/07 12:45:09;;;;;;;1.95;0.68;;;;;;;;;;4803045;29;20533;-72
2022/11/07 12:48:09;;;;;;;1.02;0.30;;;;;;;;;;4802997;29;20043;-75
2022/11/07 12:51:08;;;;;;;2.33;0.43;;;;;;;;;;4803384;29;20399;-74
2022/11/07 12:53:49;;;;;;;2.13;0.40;;;;;;;;;;4805760;29;20059;-77
2022/11/07 12:56:26;;;;;;;;;;;;;;;;;;4810516;29;20100;-74
2022/11/07 12:58:57;;;;;;;2.42;0.30;;;;;;;;;;4803907;29;19939;-76
2022/11/07 13:01:35;;;;;;;2.25;0.57;;;;;;;;;;4802894;29;20046;-75
2022/11/07 13:04:25;;;;;;;2.17;0.30;;;;;;;;;;4802654;29;20522;-75
2022/11/07 13:07:10;;;;;;;3.35;1.00;;;;;;;;;;4803071;29;20047;-73
2022/11/07 13:10:13;;;;;;;1.65;0.57;;;;;;;;;;4802589;29;20043;-75
2022/11/07 13:13:00;;;;;;;2.83;0.60;;;;;;;;;;4802460;29;20051;-77
2022/11/07 13:15:31;;;;;;;1.08;0.20;;;;;;;;;;4802447;29;20539;-76
2022/11/07 13:18:27;;;;;;;1.85;0.30;;;;;;;;;;4802267;29;20043;-74
2022/11/07 13:21:05;;;;;;;2.20;0.60;;;;;;;;;;4802707;29;20414;-74
2022/11/07 13:23:35;;;;;;;0.63;0.55;;;;;;;;;;4802574;29;20451;-76
2022/11/07 13:26:06;;;;;;;2.00;0.45;;;;;;;;;;4802585;29;20046;-74
2022/11/07 13:29:03;;;;;;;11.77;7.10;;;;;;;;;;4801802;29;20051;-74
2022/11/07 13:31:38;;;;;;;1.15;0.30;;;;;;;;;;4802224;29;20054;-78
2022/11/07 13:34:26;;;;;;;1.02;0.20;;;;;;;;;;4802723;29;20054;-75
2022/11/07 13:37:02;;;;;;;5.85;0.90;;;;;;;;;;4802400;29;20050;-74
2022/11/07 13:39:33;;;;;;;3.05;0.43;;;;;;;;;;4802272;29;20039;-80
2022/11/07 13:42:03;;;;;;;2.55;0.60;;;;;;;;;;4802243;29;20051;-78
2022/11/07 13:44:37;;;;;;;2.67;0.80;;;;;;;;;;4802174;29;20080;-76
2022/11/07 13:47:16;;;;;;;1.85;0.30;;;;;;;;;;4800924;29;20122;-74
2022/11/07 13:49:48;;;;;;;1.80;0.40;;;;;;;;;;4801842;29;20055;-73
2022/11/07 13:52:40;;;;;;;3.05;1.38;;;;;;;;;;4801679;29;20585;-77
2022/11/07 13:55:28;;;;;;;3.30;0.60;;;;;;;;;;4802012;29;20046;-74
2022/11/07 13:58:09;;;;;;;2.20;0.40;;;;;;;;;;4802010;29;20047;-74
2022/11/07 14:00:39;;;;;;;3.60;0.82;;;;;;;;;;4801994;29;20047;-75
2022/11/07 14:03:42;;;;;;;1.25;0.20;;;;;;;;;;4801844;29;21008;-76
2022/11/07 14:06:14;;;;;;;1.90;0.30;;;;;;;;;;4800310;29;20081;-76
2022/11/07 14:08:46;;;;;;;2.50;0.40;;;;;;;;;;4800546;29;20814;-77
2022/11/07 14:11:22;;;;;;;3.92;0.75;;;;;;;;;;4801581;29;20046;-74
2022/11/07 14:13:54;;;;;;;4.20;0.47;;;;;;;;;;4801266;29;20054;-73
2022/11/07 14:16:29;;;;;;;5.93;0.73;;;;;;;;;;4801901;29;20062;-74
2022/11/07 14:19:05;;;;;;;2.58;0.45;;;;;;;;;;4800718;29;20058;-75
2022/11/07 14:21:37;;;;;;;4.18;0.60;;;;;;;;;;4801316;29;20074;-76
2022/11/07 14:24:24;;;;;;;3.90;0.52;;;;;;;;;;4801489;29;20050;-75
2022/11/07 14:26:58;;;;;;;;;;;;;;;;;;4800703;29;20051;-76
2022/11/07 14:29:28;;;;;;;3.17;0.40;;;;;;;;;;4801073;29;19925;-76
2022/11/07 14:32:03;;;;;;;4.55;0.80;;;;;;;;;;4800824;29;20483;-76
2022/11/07 14:34:44;;;;;;;1.55;0.45;;;;;;;;;;4799765;29;20507;-75
2022/11/07 14:37:17;;;;;;;4.25;0.93;;;;;;;;;;4801098;29;20057;-75
2022/11/07 14:39:47;;;;;;;3.00;1.00;;;;;;;;;;4801165;29;20514;-75
2022/11/07 14:42:23;;;;;;;3.33;0.70;;;;;;;;;;4802036;29;20058;-74
2022/11/07 14:44:55;;;;;;;2.83;0.55;;;;;;;;;;4799608;29;20051;-74
2022/11/07 14:47:32;;;;;;;0.70;0.15;;;;;;;;;;4801202;29;20062;-75
2022/11/07 14:50:03;;;;;;;3.35;1.92;;;;;;;;;;4800704;29;20058;-75
2022/11/07 14:53:05;;;;;;;1.33;0.52;;;;;;;;;;4801139;29;20062;-75
2022/11/07 14:56:07;;;;;;;1.65;0.40;;;;;;;;;;4799889;29;20058;-74
2022/11/07 14:58:42;;;;;;;4.30;0.70;;;;;;;;;;4802846;29;20058;-76
2022/11/07 15:01:20;;;;;;;0.25;0.20;;;;;;;;;;4800655;29;20494;-74
2022/11/07 15:03:58;;;;;;;0.38;0.15;;;;;;;;;;4800697;29;20051;-75
2022/11/07 15:06:40;;;;;;;2.63;0.43;;;;;;;;;;4800758;29;20050;-73
2022/11/07 15:09:32;;;;;;;1.70;0.60;;;;;;;;;;4801207;29;20043;-75
2022/11/07 15:12:31;;;;;;;4.07;0.50;;;;;;;;;;4800236;29;20455;-79
2022/11/07 15:15:05;;;;;;;0.30;0.20;;;;;;;;;;4800127;29;20058;-74
2022/11/07 15:17:44;;;;;;;1.45;0.40;;;;;;;;;;4800675;29;20042;-76
2022/11/07 15:20:32;;;;;;;1.48;0.52;;;;;;;;;;4800505;29;20484;-77
2022/11/07 15:23:06;;;;;;;1.38;0.15;;;;;;;;;;4800495;29;20511;-74
2022/11/07 15:25:39;;;;;;;1.33;0.43;;;;;;;;;;4800209;29;20050;-74
2022/11/07 15:28:21;;;;;;;1.40;0.47;;;;;;;;;;4800468;29;20046;-75
2022/11/07 15:30:54;;;;;;;2.70;0.68;;;;;;;;;;4800517;29;20534;-75
2022/11/07 15:33:24;;;;;;;2.55;0.52;;;;;;;;;;4800691;29;20058;-74
2022/11/07 15:35:58;;;;;;;1.35;0.52;;;;;;;;;;4800635;29;20054;-75
2022/11/07 15:38:28;;;;;;;0.70;0.30;;;;;;;;;;4800168;29;20046;-79
2022/11/07 15:40:59;;;;;;;2.55;0.35;;;;;;;;;;4800202;29;20051;-76
2022/11/07 15:43:29;;;;;;;1.13;0.68;;;;;;;;;;4799924;29;20062;-75
2022/11/07 15:46:00;;;;;;;2.03;0.45;;;;;;;;;;4799767;29;20047;-75
2022/11/07 15:48:35;;;;;;;3.08;0.50;;;;;;;;;;4799705;29;20055;-76
2022/11/07 15:51:10;;;;;;;1.60;0.40;;;;;;;;;;4800403;29;20051;-75